Time;durP1;ratioP1;P1;durP2;ratioP2;P2;SDS_P1;SDS_P2;PMS_P1;PMS_P2;Temp;Humidity;BMP_temperature;BMP_pressure;BME280_temperature;BME280_humidity;BME280_pressure;Samples;Min_cycle;Max_cycle;Signal;HPM_P1;HPM_P2
2024/02/12 00:03:35;;;;;;;18.80;9.52;;;15.30;99.90;;;;;;10541033;27;19927;-63
2024/02/12 00:08:37;;;;;;;19.48;9.85;;;14.70;99.90;;;;;;10540927;27;20047;-62
2024/02/12 00:13:41;;;;;;;17.60;8.67;;;14.70;99.90;;;;;;10539533;27;20109;-62
2024/02/12 00:18:45;;;;;;;21.15;9.20;;;14.10;99.90;;;;;;10543240;27;20052;-62
2024/02/12 00:23:47;;;;;;;20.52;9.48;;;14.30;99.90;;;;;;10552719;28;20158;-63
2024/02/12 00:28:51;;;;;;;23.03;10.80;;;14.60;99.90;;;;;;10556461;27;20058;-62
2024/02/12 00:33:54;;;;;;;21.48;9.60;;;13.60;99.90;;;;;;10562178;27;20488;-62
2024/02/12 00:38:57;;;;;;;21.85;11.98;;;14.20;99.90;;;;;;10559900;27;20371;-64
2024/02/12 00:44:03;;;;;;;22.15;10.50;;;13.50;99.90;;;;;;10559485;27;20051;-62
2024/02/12 00:49:08;;;;;;;25.63;10.20;;;13.10;99.90;;;;;;10553278;27;20052;-62
2024/02/12 00:54:12;;;;;;;20.35;10.10;;;12.80;99.90;;;;;;10556138;27;20057;-61
2024/02/12 00:59:16;;;;;;;25.80;10.38;;;12.80;99.90;;;;;;10553518;27;20050;-62
2024/02/12 01:04:19;;;;;;;25.00;10.73;;;11.30;99.90;;;;;;10550556;27;20059;-61
2024/02/12 01:09:21;;;;;;;28.75;8.77;;;11.30;99.90;;;;;;10555177;27;20653;-61
2024/02/12 01:14:24;;;;;;;24.37;9.30;;;12.00;99.90;;;;;;10553819;27;20727;-61
2024/02/12 01:19:26;;;;;;;21.38;9.43;;;12.40;99.90;;;;;;10554694;27;20632;-61
2024/02/12 01:24:28;;;;;;;17.17;8.65;;;13.10;99.90;;;;;;10553233;27;20089;-62
2024/02/12 01:29:32;;;;;;;21.20;8.75;;;14.00;99.90;;;;;;10550675;27;20043;-61
2024/02/12 01:34:34;;;;;;;23.35;8.45;;;13.80;99.90;;;;;;10551902;27;20070;-61
2024/02/12 01:39:37;;;;;;;24.38;8.48;;;14.20;99.90;;;;;;10546929;27;20044;-62
2024/02/12 01:44:50;;;;;;;19.08;9.18;;;14.50;99.90;;;;;;10551933;27;20052;-60
2024/02/12 01:49:55;;;;;;;;;;;14.90;99.90;;;;;;10551269;27;20461;-61
2024/02/12 01:55:00;;;;;;;22.40;9.35;;;14.80;99.90;;;;;;10548588;27;21113;-61
2024/02/12 02:00:09;;;;;;;18.50;9.30;;;15.00;99.90;;;;;;10550274;27;20272;-62
2024/02/12 02:05:12;;;;;;;26.70;10.07;;;15.40;99.90;;;;;;10542189;27;20490;-62
2024/02/12 02:10:14;;;;;;;18.67;8.68;;;15.10;99.90;;;;;;10547684;27;20616;-60
2024/02/12 02:15:19;;;;;;;16.58;8.65;;;15.10;99.90;;;;;;10545297;27;20215;-61
2024/02/12 02:20:26;;;;;;;15.77;8.77;;;14.80;99.90;;;;;;10559763;27;20055;-62
2024/02/12 02:25:31;;;;;;;17.67;9.48;;;14.50;99.90;;;;;;10562554;27;20580;-60
2024/02/12 02:30:33;;;;;;;18.08;7.65;;;14.40;99.90;;;;;;10554233;27;20055;-62
2024/02/12 02:35:35;;;;;;;17.40;9.63;;;14.30;99.90;;;;;;10560886;27;20040;-61
2024/02/12 02:40:38;;;;;;;21.87;10.33;;;14.00;99.90;;;;;;10554814;27;20063;-62
2024/02/12 02:45:40;;;;;;;20.73;10.50;;;12.80;99.90;;;;;;10563179;27;20581;-60
2024/02/12 02:50:45;;;;;;;21.83;9.48;;;12.60;99.90;;;;;;10561885;27;20059;-60
2024/02/12 02:55:50;;;;;;;23.52;11.32;;;13.20;99.90;;;;;;10565121;27;20044;-60
2024/02/12 03:00:53;;;;;;;23.17;10.68;;;13.10;99.90;;;;;;10563568;27;20055;-61
2024/02/12 03:05:55;;;;;;;22.08;10.52;;;12.80;99.90;;;;;;10565026;27;20132;-61
2024/02/12 03:11:01;;;;;;;18.48;10.02;;;13.20;99.90;;;;;;10560220;27;20043;-60
2024/02/12 03:16:03;;;;;;;21.83;9.75;;;13.90;99.90;;;;;;10561795;27;20040;-61
2024/02/12 03:21:06;;;;;;;27.75;10.40;;;14.30;99.90;;;;;;10560137;27;20052;-61
2024/02/12 03:26:09;;;;;;;24.50;11.83;;;13.10;99.90;;;;;;10563591;27;20074;-60
2024/02/12 03:31:11;;;;;;;19.25;9.68;;;12.40;99.90;;;;;;10560450;27;20059;-60
2024/02/12 03:36:13;;;;;;;15.50;7.68;;;13.60;99.90;;;;;;10554172;27;20053;-61
2024/02/12 03:41:23;;;;;;;14.25;6.88;;;13.40;99.90;;;;;;10559364;27;20078;-61
2024/02/12 03:46:31;;;;;;;18.95;7.60;;;12.10;99.90;;;;;;10555589;27;20067;-62
2024/02/12 04:15:32;;;;;;;15.25;5.85;;;10.30;99.90;;;;;;10647811;27;20125;-60
2024/02/12 04:20:35;;;;;;;20.73;4.80;;;10.30;99.90;;;;;;10663408;27;20046;-61
2024/02/12 04:25:37;;;;;;;17.35;5.80;;;10.90;99.90;;;;;;10660829;27;20046;-59
2024/02/12 04:30:41;;;;;;;17.92;5.95;;;10.70;99.90;;;;;;10662203;27;20635;-61
2024/02/12 04:35:44;;;;;;;16.88;5.25;;;10.30;99.90;;;;;;10658393;27;20043;-61
2024/02/12 04:40:46;;;;;;;13.25;4.45;;;11.40;99.90;;;;;;10662184;27;20149;-61
2024/02/12 04:45:52;;;;;;;12.37;4.20;;;10.40;99.90;;;;;;10661337;27;20050;-61
2024/02/12 04:50:53;;;;;;;10.85;4.40;;;10.80;99.90;;;;;;10656754;27;20409;-61
2024/02/12 04:55:56;;;;;;;9.98;4.72;;;11.10;99.90;;;;;;10660242;27;20181;-62
2024/02/12 05:00:59;;;;;;;11.17;4.57;;;11.70;99.90;;;;;;10661517;27;20046;-61
2024/02/12 05:06:01;;;;;;;12.57;3.78;;;12.80;99.90;;;;;;10662936;27;20043;-61
2024/02/12 05:11:03;;;;;;;7.20;3.67;;;13.80;99.90;;;;;;10655424;27;20062;-61
2024/02/12 05:16:08;;;;;;;8.80;3.80;;;13.90;99.90;;;;;;10660257;27;20054;-60
2024/02/12 05:26:32;;;;;;;8.43;4.30;;;14.30;99.90;;;;;;10626183;27;20047;-62
2024/02/12 05:31:36;;;;;;;10.43;4.13;;;14.70;99.90;;;;;;10624616;27;20493;-62
2024/02/12 05:36:38;;;;;;;13.65;4.30;;;14.60;99.90;;;;;;10626741;27;20842;-62
2024/02/12 05:41:41;;;;;;;6.37;3.23;;;14.10;99.90;;;;;;10624590;27;20039;-62
2024/02/12 05:46:45;;;;;;;9.52;3.30;;;14.70;99.90;;;;;;10615850;27;20215;-62
2024/02/12 05:51:48;;;;;;;8.73;3.22;;;15.00;99.90;;;;;;10622055;27;20074;-62
2024/02/12 05:56:50;;;;;;;9.00;3.00;;;15.30;99.90;;;;;;10624815;27;20078;-62
2024/02/12 06:01:55;;;;;;;6.23;2.87;;;15.70;99.90;;;;;;10618719;27;20646;-62
2024/02/12 06:06:58;;;;;;;9.32;3.20;;;15.60;99.90;;;;;;10622385;27;20128;-62
2024/02/12 06:12:01;;;;;;;10.10;3.15;;;15.70;99.90;;;;;;10619485;27;23546;-62
2024/02/12 06:17:04;;;;;;;9.98;3.30;;;15.70;99.90;;;;;;10612465;27;21117;-62
2024/02/12 06:22:06;;;;;;;6.88;2.78;;;15.70;99.90;;;;;;10624278;27;20047;-62
2024/02/12 06:27:08;;;;;;;5.33;3.03;;;15.80;99.90;;;;;;10622565;27;20046;-62
2024/02/12 06:32:14;;;;;;;11.83;3.20;;;15.70;99.90;;;;;;10620649;27;20091;-62
2024/02/12 06:37:17;;;;;;;8.13;3.17;;;15.80;99.90;;;;;;10622166;27;20070;-62
2024/02/12 06:42:19;;;;;;;8.88;3.63;;;15.80;99.90;;;;;;10629388;27;20224;-61
2024/02/12 06:47:22;;;;;;;9.15;3.97;;;16.00;99.90;;;;;;10627084;27;20487;-61
2024/02/12 06:52:24;;;;;;;10.30;3.60;;;16.10;99.90;;;;;;10630202;27;20082;-62
2024/02/12 06:57:26;;;;;;;5.57;2.97;;;16.10;99.90;;;;;;10625364;27;20701;-62
2024/02/12 07:02:30;;;;;;;10.93;3.80;;;16.00;99.90;;;;;;10619769;27;20155;-62
2024/02/12 07:07:32;;;;;;;8.25;3.33;;;15.90;99.90;;;;;;10622809;27;20057;-61
2024/02/12 07:12:34;;;;;;;13.98;4.10;;;15.90;99.90;;;;;;10624517;27;20848;-62
2024/02/12 07:17:38;;;;;;;8.38;3.38;;;15.90;99.90;;;;;;10623660;27;20116;-62
2024/02/12 07:22:40;;;;;;;10.20;3.90;;;16.00;99.90;;;;;;10623185;27;20042;-62
2024/02/12 07:27:43;;;;;;;10.77;4.65;;;15.90;99.90;;;;;;10625122;27;20055;-62
2024/02/12 07:32:48;;;;;;;11.57;4.47;;;15.90;99.90;;;;;;10617867;27;20054;-61
2024/02/12 07:37:51;;;;;;;8.65;4.63;;;15.80;99.90;;;;;;10620521;27;20058;-61
2024/02/12 07:42:54;;;;;;;11.02;4.45;;;16.00;99.90;;;;;;10619614;27;20047;-62
2024/02/12 07:47:57;;;;;;;5.63;3.38;;;15.80;99.90;;;;;;10619413;27;20042;-63
2024/02/12 07:52:59;;;;;;;10.00;3.15;;;15.70;99.90;;;;;;10623706;27;20042;-62
2024/02/12 07:58:01;;;;;;;10.35;2.83;;;15.60;99.90;;;;;;10623465;27;20047;-62
2024/02/12 08:03:05;;;;;;;20.85;3.20;;;15.70;99.90;;;;;;10617225;27;20082;-62
2024/02/12 08:08:07;;;;;;;8.85;2.85;;;15.00;99.90;;;;;;10620775;27;20054;-63
2024/02/12 08:13:11;;;;;;;6.10;2.50;;;14.80;99.90;;;;;;10614390;27;20077;-62
2024/02/12 08:18:14;;;;;;;12.30;3.17;;;14.40;99.90;;;;;;10623139;27;20050;-62
2024/02/12 08:23:16;;;;;;;10.48;3.17;;;13.30;99.90;;;;;;10619139;27;20054;-61
2024/02/12 08:28:22;;;;;;;13.80;4.05;;;12.60;99.90;;;;;;10622357;27;20166;-61
2024/02/12 08:33:26;;;;;;;9.00;3.13;;;12.30;99.90;;;;;;10623340;27;20042;-62
2024/02/12 08:38:28;;;;;;;7.38;2.40;;;12.30;99.90;;;;;;10624944;27;20046;-61
2024/02/12 08:43:31;;;;;;;8.98;2.28;;;12.60;99.90;;;;;;10620516;27;20042;-61
2024/02/12 08:48:34;;;;;;;10.65;2.92;;;12.90;99.90;;;;;;10621677;27;20069;-63
2024/02/12 08:53:43;;;;;;;14.40;2.65;;;10.90;99.90;;;;;;10618123;27;20403;-61
2024/02/12 08:58:45;;;;;;;12.55;2.75;;;10.60;99.90;;;;;;10622680;27;20051;-62
2024/02/12 09:03:49;;;;;;;9.68;2.85;;;10.90;99.90;;;;;;10628879;27;20152;-60
2024/02/12 09:08:51;;;;;;;11.23;2.20;;;10.30;99.90;;;;;;10629349;27;20057;-61
2024/02/12 09:13:53;;;;;;;12.13;2.55;;;10.30;99.90;;;;;;10628701;27;20169;-62
2024/02/12 09:18:57;;;;;;;8.40;2.40;;;11.20;99.90;;;;;;10628603;27;20144;-62
2024/02/12 09:23:59;;;;;;;11.98;2.05;;;11.40;99.90;;;;;;10631346;27;20484;-61
2024/02/12 09:29:01;;;;;;;10.83;1.77;;;11.60;99.90;;;;;;10625402;27;20520;-62
2024/02/12 09:34:05;;;;;;;14.27;3.72;;;11.10;99.90;;;;;;10625978;27;20659;-62
2024/02/12 09:39:08;;;;;;;11.60;2.53;;;10.80;99.90;;;;;;10624944;27;20051;-61
2024/02/12 09:44:12;;;;;;;8.60;2.30;;;11.50;99.90;;;;;;10628636;27;20066;-62
2024/02/12 09:49:16;;;;;;;13.80;2.63;;;11.20;99.90;;;;;;10623576;27;20564;-61
2024/02/12 09:54:21;;;;;;;10.18;2.75;;;11.50;99.90;;;;;;10630676;27;20072;-61
2024/02/12 09:59:23;;;;;;;15.70;2.83;;;11.50;99.90;;;;;;10628024;27;20050;-62
2024/02/12 10:04:27;;;;;;;9.50;2.13;;;11.90;99.90;;;;;;10624945;27;20047;-62
2024/02/12 10:09:30;;;;;;;13.57;2.40;;;11.60;99.90;;;;;;10624492;27;20090;-62
2024/02/12 10:14:33;;;;;;;7.97;2.03;;;10.90;99.90;;;;;;10623181;27;20205;-62
2024/02/12 10:19:37;;;;;;;6.83;1.80;;;11.10;99.90;;;;;;10625894;27;20110;-62
2024/02/12 10:24:41;;;;;;;9.50;2.08;;;11.60;99.90;;;;;;10627719;27;20101;-62
2024/02/12 10:29:44;;;;;;;8.02;2.00;;;11.20;99.90;;;;;;10625735;27;20846;-61
2024/02/12 10:34:49;;;;;;;13.00;1.77;;;10.70;99.90;;;;;;10623739;27;20114;-62
2024/02/12 10:39:52;;;;;;;7.97;2.40;;;11.30;99.90;;;;;;10625123;27;20042;-62
2024/02/12 10:44:55;;;;;;;9.13;2.20;;;10.60;99.90;;;;;;10624203;27;20081;-62
2024/02/12 10:49:59;;;;;;;6.82;1.38;;;10.40;99.90;;;;;;10622907;27;20615;-62
2024/02/12 10:55:03;;;;;;;15.30;2.22;;;10.90;99.90;;;;;;10624824;27;20519;-61
2024/02/12 11:00:06;;;;;;;13.07;2.50;;;10.50;99.90;;;;;;10624459;27;20133;-62
2024/02/12 11:05:11;;;;;;;10.63;1.80;;;10.60;99.90;;;;;;10623313;27;20945;-61
2024/02/12 11:10:18;;;;;;;11.45;1.95;;;10.80;99.90;;;;;;10620877;27;20043;-61
2024/02/12 11:15:21;;;;;;;9.45;2.83;;;10.50;99.90;;;;;;10625186;27;20080;-62
2024/02/12 11:20:26;;;;;;;5.65;1.40;;;10.70;99.90;;;;;;10621246;27;20180;-62
2024/02/12 11:25:30;;;;;;;6.57;1.73;;;10.60;99.90;;;;;;10622597;27;20119;-61
2024/02/12 11:30:33;;;;;;;9.85;1.65;;;10.20;99.90;;;;;;10627116;27;20090;-63
2024/02/12 11:35:36;;;;;;;;;;;10.60;99.90;;;;;;10630053;27;20054;-60
2024/02/12 11:40:39;;;;;;;11.02;2.05;;;10.60;99.90;;;;;;10628967;27;19934;-60
2024/02/12 11:45:41;;;;;;;11.80;2.50;;;10.70;99.90;;;;;;10632436;27;20046;-62
2024/02/12 11:50:46;;;;;;;14.43;2.33;;;10.60;99.90;;;;;;10633054;27;20043;-61
2024/02/12 11:55:48;;;;;;;12.68;2.50;;;10.10;99.90;;;;;;10626436;27;20042;-62
2024/02/12 12:00:50;;;;;;;12.70;2.27;;;10.40;99.90;;;;;;10619436;27;20487;-61
2024/02/12 12:05:55;;;;;;;16.70;1.70;;;11.10;99.90;;;;;;10621755;27;20491;-61
2024/02/12 12:11:04;;;;;;;16.27;2.17;;;11.10;99.90;;;;;;10621011;27;20942;-61
2024/02/12 12:16:07;;;;;;;22.08;1.90;;;11.70;99.90;;;;;;10621192;27;20073;-61
2024/02/12 12:21:11;;;;;;;7.60;1.90;;;11.60;99.90;;;;;;10620364;27;20520;-61
2024/02/12 12:26:13;;;;;;;14.68;2.92;;;11.60;99.90;;;;;;10617408;27;20673;-59
2024/02/12 12:31:16;;;;;;;6.67;1.07;;;11.40;99.90;;;;;;10619229;27;20078;-60
2024/02/12 12:36:20;;;;;;;8.55;1.58;;;11.60;99.90;;;;;;10629401;27;20046;-59
2024/02/12 12:41:23;;;;;;;5.30;1.17;;;11.80;99.90;;;;;;10631989;27;20051;-61
2024/02/12 12:46:25;;;;;;;14.35;1.52;;;11.70;99.90;;;;;;10626236;27;20597;-60
2024/02/12 12:51:28;;;;;;;7.20;1.47;;;12.10;99.90;;;;;;10626319;27;20053;-61
2024/02/12 12:56:31;;;;;;;11.70;1.73;;;11.60;99.90;;;;;;10623779;27;20046;-61
2024/02/12 13:01:33;;;;;;;8.95;1.48;;;11.10;99.90;;;;;;10629280;27;20073;-62
2024/02/12 13:06:38;;;;;;;8.17;1.10;;;11.20;99.90;;;;;;10623537;27;20049;-61
2024/02/12 13:11:40;;;;;;;7.78;1.63;;;11.30;99.90;;;;;;10623649;27;20115;-60
2024/02/12 13:16:42;;;;;;;9.23;2.03;;;11.10;99.90;;;;;;10629515;27;20161;-62
2024/02/12 13:21:47;;;;;;;13.97;1.93;;;11.10;99.90;;;;;;10626111;27;20046;-60
2024/02/12 13:26:49;;;;;;;11.15;2.65;;;11.10;99.90;;;;;;10630638;27;20094;-61
2024/02/12 13:31:53;;;;;;;13.93;2.15;;;10.90;99.90;;;;;;10627867;27;20054;-61
2024/02/12 13:36:57;;;;;;;16.17;1.83;;;10.60;99.90;;;;;;10629379;27;20088;-61
2024/02/12 13:41:59;;;;;;;8.88;1.77;;;11.00;99.90;;;;;;10619471;27;20085;-62
2024/02/12 13:47:01;;;;;;;7.00;1.73;;;11.60;99.90;;;;;;10623867;27;21028;-61
2024/02/12 13:52:07;;;;;;;9.83;1.90;;;11.20;99.90;;;;;;10623302;27;20069;-59
2024/02/12 13:57:09;;;;;;;9.57;1.25;;;11.60;99.90;;;;;;10625853;27;20196;-59
2024/02/12 14:02:12;;;;;;;9.03;2.43;;;12.60;99.90;;;;;;10629907;27;20545;-61
2024/02/12 14:07:18;;;;;;;12.93;1.50;;;12.50;99.90;;;;;;10629695;27;20417;-60
2024/02/12 14:12:20;;;;;;;7.32;1.30;;;12.30;99.90;;;;;;10626855;27;20655;-59
2024/02/12 14:17:22;;;;;;;9.87;1.40;;;11.50;99.90;;;;;;10619605;27;20486;-62
2024/02/12 14:22:26;;;;;;;12.03;1.40;;;11.90;99.90;;;;;;10634550;27;20130;-59
2024/02/12 14:27:28;;;;;;;9.80;1.70;;;12.30;99.90;;;;;;10632962;27;20709;-60
2024/02/12 14:32:31;;;;;;;6.45;2.17;;;12.40;99.90;;;;;;10632498;27;20050;-61
2024/02/12 14:37:35;;;;;;;7.82;1.63;;;12.40;99.90;;;;;;10626434;27;20057;-59
2024/02/12 14:42:40;;;;;;;3.65;0.93;;;12.80;99.90;;;;;;10626214;27;20051;-60
2024/02/12 14:47:44;;;;;;;13.15;2.03;;;12.90;99.90;;;;;;10625735;27;20069;-61
2024/02/12 14:52:49;;;;;;;16.67;1.83;;;12.90;99.90;;;;;;10630554;27;20096;-60
2024/02/12 14:57:51;;;;;;;5.60;0.93;;;13.40;99.90;;;;;;10624733;27;20872;-61
2024/02/12 15:02:54;;;;;;;15.52;1.75;;;13.30;99.90;;;;;;10622492;27;20473;-60
2024/02/12 15:07:58;;;;;;;8.52;1.63;;;13.70;99.90;;;;;;10624928;27;20117;-61
2024/02/12 15:13:03;;;;;;;8.25;1.20;;;13.70;99.90;;;;;;10627085;27;20050;-60
2024/02/12 15:18:10;;;;;;;7.82;1.25;;;14.40;99.90;;;;;;10628795;27;20145;-61
2024/02/12 15:23:14;;;;;;;16.25;2.28;;;14.00;99.90;;;;;;10621782;27;20043;-62
2024/02/12 15:28:16;;;;;;;8.63;1.58;;;13.70;99.90;;;;;;10627695;27;20565;-61
2024/02/12 15:33:19;;;;;;;9.23;2.13;;;13.00;99.90;;;;;;10628918;27;20042;-61
2024/02/12 15:38:22;;;;;;;6.65;1.30;;;12.80;99.90;;;;;;10629298;27;20058;-61
2024/02/12 15:43:26;;;;;;;6.82;1.50;;;13.20;99.90;;;;;;10621401;27;20057;-61
2024/02/12 15:48:29;;;;;;;6.05;1.23;;;11.70;99.90;;;;;;10625461;27;20046;-59
2024/02/12 15:53:33;;;;;;;9.13;1.77;;;11.80;99.90;;;;;;10623586;27;20047;-62
2024/02/12 15:58:36;;;;;;;7.15;1.23;;;11.30;99.90;;;;;;10622676;27;20054;-61
2024/02/12 16:03:39;;;;;;;10.95;1.50;;;12.30;99.90;;;;;;10615521;27;20078;-62
2024/02/12 16:08:44;;;;;;;8.20;1.50;;;12.30;99.90;;;;;;10614312;27;20051;-62
2024/02/12 16:13:47;;;;;;;7.95;1.45;;;13.40;99.90;;;;;;10616837;27;20061;-61
2024/02/12 16:18:52;;;;;;;10.75;1.05;;;12.00;99.90;;;;;;10617756;27;20670;-61
2024/02/12 16:23:55;;;;;;;11.07;1.38;;;13.90;99.90;;;;;;10619764;27;20054;-60
2024/02/12 16:28:58;;;;;;;6.35;1.30;;;12.00;99.90;;;;;;10616820;27;20533;-61
2024/02/12 16:34:00;;;;;;;;;;;13.50;99.90;;;;;;10618826;27;20400;-61
2024/02/12 16:39:04;;;;;;;6.75;1.75;;;13.20;99.90;;;;;;10622788;27;19919;-61
2024/02/12 16:44:07;;;;;;;5.18;1.20;;;11.40;99.90;;;;;;10620560;27;20094;-62
2024/02/12 16:49:09;;;;;;;6.75;1.52;;;11.20;99.90;;;;;;10616305;27;20055;-61
2024/02/12 16:54:12;;;;;;;4.43;1.73;;;11.90;99.90;;;;;;10619336;27;20089;-61
2024/02/12 16:59:15;;;;;;;9.52;1.92;;;12.60;99.90;;;;;;10623752;27;20057;-62
2024/02/12 17:04:17;;;;;;;;;;;12.90;99.90;;;;;;10622437;27;20074;-59
2024/02/12 17:09:20;;;;;;;11.15;1.55;;;14.10;99.90;;;;;;10621100;27;20672;-61
2024/02/12 17:14:22;;;;;;;5.40;1.55;;;13.30;99.90;;;;;;10617291;27;20740;-60
2024/02/12 17:19:24;;;;;;;6.50;1.43;;;10.50;99.90;;;;;;10620704;27;20089;-63
2024/02/12 17:24:28;;;;;;;5.22;1.40;;;9.50;99.90;;;;;;10631901;27;20058;-61
2024/02/12 17:29:30;;;;;;;5.22;1.38;;;9.40;99.90;;;;;;10627582;27;20121;-61
2024/02/12 17:34:32;;;;;;;6.07;1.45;;;9.80;99.90;;;;;;10626238;27;20522;-62
2024/02/12 17:39:36;;;;;;;8.75;1.65;;;10.40;99.90;;;;;;10626007;27;20038;-62
2024/02/12 17:44:38;;;;;;;6.20;2.25;;;9.10;99.90;;;;;;10625209;27;20971;-62
2024/02/12 17:49:47;;;;;;;4.45;1.30;;;10.50;99.90;;;;;;10626545;27;20053;-61
2024/02/12 17:54:51;;;;;;;2.45;1.00;;;11.50;99.90;;;;;;10628054;27;20110;-61
2024/02/12 17:59:53;;;;;;;6.13;1.52;;;12.10;99.90;;;;;;10627590;27;20051;-60
2024/02/12 18:04:57;;;;;;;8.23;2.72;;;11.90;99.90;;;;;;10622884;27;20137;-61
2024/02/12 18:10:00;;;;;;;6.65;2.80;;;10.40;99.90;;;;;;10623421;27;20046;-63
2024/02/12 18:15:03;;;;;;;10.95;3.50;;;8.90;99.90;;;;;;10625507;27;20772;-61
2024/02/12 18:20:06;;;;;;;13.50;4.35;;;9.60;99.90;;;;;;10629098;27;20070;-61
2024/02/12 18:25:11;;;;;;;18.30;2.88;;;9.20;99.90;;;;;;10629374;27;20078;-61
2024/02/12 18:30:14;;;;;;;8.80;2.58;;;9.70;99.90;;;;;;10628088;27;20082;-62
2024/02/12 18:35:16;;;;;;;14.15;2.50;;;10.00;99.90;;;;;;10626079;27;20050;-61
2024/02/12 18:40:21;;;;;;;4.93;1.80;;;10.70;99.90;;;;;;10623828;27;20097;-62
2024/02/12 18:45:24;;;;;;;14.55;3.10;;;11.70;99.90;;;;;;10625750;27;20039;-61
2024/02/12 18:50:27;;;;;;;11.45;2.70;;;12.00;99.90;;;;;;10624411;27;20057;-62
2024/02/12 18:55:31;;;;;;;10.33;2.33;;;12.10;99.90;;;;;;10626871;27;20119;-62
2024/02/12 19:00:35;;;;;;;11.75;2.22;;;10.80;99.90;;;;;;10624191;27;20474;-62
2024/02/12 19:05:37;;;;;;;12.18;3.33;;;10.20;99.90;;;;;;10625700;27;20050;-63
2024/02/12 19:10:41;;;;;;;8.33;2.70;;;10.20;99.90;;;;;;10624569;27;20054;-63
2024/02/12 19:15:43;;;;;;;10.55;3.03;;;10.20;99.90;;;;;;10623200;27;20047;-62
2024/02/12 19:20:46;;;;;;;12.10;2.60;;;10.10;99.90;;;;;;10615837;27;20051;-62
2024/02/12 19:25:49;;;;;;;12.80;2.50;;;10.00;99.90;;;;;;10615068;27;20492;-62
2024/02/12 19:30:51;;;;;;;8.18;2.15;;;10.50;99.90;;;;;;10613282;27;20047;-61
2024/02/12 19:35:54;;;;;;;6.88;2.20;;;10.50;99.90;;;;;;10614045;27;20526;-62
2024/02/12 19:40:57;;;;;;;9.93;2.13;;;9.90;99.90;;;;;;10622308;27;20047;-63
2024/02/12 19:45:59;;;;;;;8.38;2.47;;;9.40;99.90;;;;;;10616529;27;20050;-63
2024/02/12 19:51:04;;;;;;;8.73;2.00;;;9.30;99.90;;;;;;10616277;27;20059;-61
2024/02/12 19:56:08;;;;;;;8.68;2.00;;;11.50;99.90;;;;;;10619564;27;20046;-62
2024/02/12 20:01:11;;;;;;;5.85;2.17;;;12.30;99.90;;;;;;10618684;27;20135;-62
2024/02/12 20:06:14;;;;;;;12.77;2.33;;;12.70;99.90;;;;;;10617059;27;20118;-61
2024/02/12 20:11:18;;;;;;;8.98;2.35;;;13.40;99.90;;;;;;10616482;27;20520;-61
2024/02/12 20:16:22;;;;;;;9.02;2.28;;;13.20;99.90;;;;;;10622827;27;20133;-60
2024/02/12 20:21:26;;;;;;;13.07;2.03;;;12.90;99.90;;;;;;10623342;27;20343;-62
2024/02/12 20:26:30;;;;;;;9.23;2.85;;;13.40;99.90;;;;;;10622196;27;20050;-61
2024/02/12 20:31:35;;;;;;;9.07;2.83;;;13.50;99.90;;;;;;10619833;27;20062;-62
2024/02/12 20:36:38;;;;;;;4.70;1.77;;;12.20;99.90;;;;;;10614496;27;20061;-61
2024/02/12 20:41:41;;;;;;;5.78;2.38;;;12.60;99.90;;;;;;10614465;27;20802;-62
2024/02/12 20:46:43;;;;;;;5.97;1.67;;;13.10;99.90;;;;;;10621662;27;20054;-61
2024/02/12 20:51:49;;;;;;;4.75;1.48;;;13.30;99.90;;;;;;10617764;27;20464;-61
2024/02/12 20:56:53;;;;;;;15.65;5.30;;;13.60;99.90;;;;;;10619532;27;21196;-62
2024/02/12 21:01:55;;;;;;;3.97;1.30;;;14.30;99.90;;;;;;10627727;27;20049;-61
2024/02/12 21:06:57;;;;;;;3.17;1.33;;;14.60;99.90;;;;;;10621252;27;20046;-61
2024/02/12 21:12:01;;;;;;;6.23;1.47;;;14.60;99.90;;;;;;10624301;27;20853;-63
2024/02/12 21:17:04;;;;;;;6.50;1.60;;;14.80;99.90;;;;;;10622464;27;20103;-61
2024/02/12 21:22:08;;;;;;;3.55;1.20;;;14.90;99.90;;;;;;10622470;27;20062;-61
2024/02/12 21:27:13;;;;;;;9.05;1.50;;;14.30;99.90;;;;;;10623048;27;20050;-62
2024/02/12 21:32:15;;;;;;;4.47;1.30;;;14.10;99.90;;;;;;10623628;27;20050;-62
2024/02/12 21:37:17;;;;;;;6.83;1.40;;;13.60;99.90;;;;;;10627870;27;20527;-61
2024/02/12 21:42:25;;;;;;;6.43;1.48;;;12.60;99.90;;;;;;10627670;27;20198;-63
2024/02/12 21:47:28;;;;;;;10.85;1.73;;;12.40;99.90;;;;;;10633560;27;20141;-62
2024/02/12 21:52:30;;;;;;;6.15;1.70;;;12.40;99.90;;;;;;10633010;27;20540;-62
2024/02/12 21:57:33;;;;;;;15.07;3.00;;;12.80;99.90;;;;;;10632784;27;20057;-61
2024/02/12 22:02:37;;;;;;;13.43;3.15;;;12.50;99.90;;;;;;10632177;27;20054;-61
2024/02/12 22:07:40;;;;;;;4.65;1.30;;;12.80;99.90;;;;;;10627833;27;20046;-62
2024/02/12 22:12:44;;;;;;;;;;;13.80;99.90;;;;;;10631344;27;20115;-61
2024/02/12 22:17:46;;;;;;;;;;;13.80;99.90;;;;;;10632659;27;19930;-62
2024/02/12 22:22:48;;;;;;;6.03;1.48;;;13.90;99.90;;;;;;10636730;27;19927;-62
2024/02/12 22:27:53;;;;;;;5.18;1.38;;;14.40;99.90;;;;;;10627395;27;20158;-61
2024/02/12 22:32:57;;;;;;;4.75;1.65;;;14.30;99.90;;;;;;10631250;27;20043;-61
2024/02/12 22:37:59;;;;;;;5.95;2.08;;;14.00;99.90;;;;;;10627633;27;20106;-62
2024/02/12 22:43:03;;;;;;;5.07;1.40;;;14.00;99.90;;;;;;10603985;27;20059;-62
2024/02/12 22:48:05;;;;;;;8.50;1.30;;;14.40;99.90;;;;;;10612728;27;20078;-62
2024/02/12 22:53:10;;;;;;;;;;;14.70;99.90;;;;;;10623424;27;20054;-61
2024/02/12 22:58:13;;;;;;;7.38;1.50;;;14.30;99.90;;;;;;10626676;27;20441;-61
2024/02/12 23:03:15;;;;;;;8.48;1.50;;;13.70;99.90;;;;;;10622360;27;20057;-61
2024/02/12 23:08:17;;;;;;;9.48;2.47;;;14.00;99.90;;;;;;10625425;27;20520;-60
2024/02/12 23:13:21;;;;;;;8.00;1.87;;;14.00;99.90;;;;;;10623371;27;20058;-62
2024/02/12 23:18:23;;;;;;;9.45;2.00;;;13.40;99.90;;;;;;10621944;27;21203;-62
2024/02/12 23:23:26;;;;;;;11.20;1.90;;;13.40;99.90;;;;;;10633374;27;20429;-61
2024/02/12 23:28:35;;;;;;;8.13;1.85;;;12.70;99.90;;;;;;10630582;27;20898;-61
2024/02/12 23:33:37;;;;;;;7.13;1.50;;;12.50;99.90;;;;;;10631862;27;20076;-61
2024/02/12 23:38:39;;;;;;;7.65;2.20;;;12.80;99.90;;;;;;10642338;27;20039;-58
2024/02/12 23:43:42;;;;;;;7.90;2.03;;;12.70;99.90;;;;;;10636091;27;20062;-62
2024/02/12 23:48:44;;;;;;;6.65;2.78;;;12.90;99.90;;;;;;10629402;27;20110;-61
2024/02/12 23:53:46;;;;;;;7.82;3.30;;;12.40;99.90;;;;;;10624178;27;20131;-61
2024/02/12 23:58:50;;;;;;;10.57;3.60;;;12.10;99.90;;;;;;10624776;27;20451;-61
